createdAt,value
2022-08-20T00:00:19.426Z,98470.44
2022-08-20T00:03:27.622Z,98464.47
2022-08-20T00:06:31.835Z,98477.16
2022-08-20T00:09:36.761Z,98470.78
2022-08-20T00:12:45.216Z,98470.78
2022-08-20T00:15:48.560Z,98468.41
2022-08-20T00:18:51.606Z,98469.97
2022-08-20T00:21:57.974Z,98472.38
2022-08-20T00:25:01.127Z,98477.09
2022-08-20T00:28:06.923Z,98470.69
2022-08-20T00:31:11.958Z,98471.50
2022-08-20T00:34:14.662Z,98478.66
2022-08-20T00:37:18.901Z,98480.22
2022-08-20T00:40:24.151Z,98473.94
2022-08-20T00:43:36.032Z,98481.09
2022-08-20T00:46:39.123Z,98477.94
2022-08-20T00:49:41.590Z,98481.09
2022-08-20T00:52:49.928Z,98478.72
2022-08-20T00:55:52.984Z,98467.22
2022-08-20T00:58:56.039Z,98475.56
2022-08-20T01:01:59.711Z,98475.19
2022-08-20T01:05:02.885Z,98473.19
2022-08-20T01:08:06.681Z,98484.31
2022-08-20T01:11:12.496Z,98489.84
2022-08-20T01:14:27.772Z,98502.56
2022-08-20T01:17:34.411Z,98499.00
2022-08-20T01:20:40.098Z,98500.19
2022-08-20T01:23:52.612Z,98499.75
2022-08-20T01:26:56.922Z,98508.09
2022-08-20T01:30:01.118Z,98514.47
2022-08-20T01:33:08.855Z,98509.28
2022-08-20T01:36:12.583Z,98508.13
2022-08-20T01:39:19.216Z,98512.88
2022-08-20T01:42:26.944Z,98519.25
2022-08-20T01:45:31.023Z,98521.63
2022-08-20T01:48:33.940Z,98520.81
2022-08-20T01:51:36.529Z,98525.56
2022-08-20T01:54:39.218Z,98520.03
2022-08-20T01:57:43.221Z,98529.94
2022-08-20T02:00:45.852Z,98526.78
2022-08-20T02:03:48.758Z,98529.16
2022-08-20T02:06:57.338Z,98525.56
2022-08-20T02:10:00.421Z,98529.94
2022-08-20T02:13:06.217Z,98531.94
2022-08-20T02:16:09.040Z,98534.28
2022-08-20T02:19:15.459Z,98529.91
2022-08-20T02:22:22.801Z,98529.13
2022-08-20T02:25:30.636Z,98535.06
2022-08-20T02:28:35.022Z,98545.34
2022-08-20T02:31:38.388Z,98540.13
2022-08-20T02:35:02.290Z,98546.44
2022-08-20T02:38:05.279Z,98544.88
2022-08-20T02:41:08.562Z,98530.16
2022-08-20T02:44:12.659Z,98540.50
2022-08-20T02:47:15.350Z,98539.25
2022-08-20T02:50:21.058Z,98536.47
2022-08-20T02:53:24.612Z,98543.59
2022-08-20T02:56:27.358Z,98538.84
2022-08-20T02:59:31.513Z,98529.72
2022-08-20T03:02:34.335Z,98526.53
2022-08-20T03:05:38.742Z,98520.56
2022-08-20T03:08:42.172Z,98518.16
2022-08-20T03:11:45.441Z,98515.72
2022-08-20T03:14:49.399Z,98518.09
2022-08-20T03:17:52.385Z,98520.97
2022-08-20T03:20:55.243Z,98516.59
2022-08-20T03:23:58.549Z,98518.56
2022-08-20T03:27:01.284Z,98520.91
2022-08-20T03:30:07.006Z,98526.84
2022-08-20T03:33:10.284Z,98520.09
2022-08-20T03:36:12.846Z,98524.81
2022-08-20T03:39:22.052Z,98518.91
2022-08-20T03:42:24.852Z,98524.56
2022-08-20T03:45:29.824Z,98526.97
2022-08-20T03:48:32.852Z,98523.78
2022-08-20T03:51:57.611Z,98531.38
2022-08-20T03:54:58.200Z,98534.13
2022-08-20T03:58:03.208Z,98536.91
2022-08-20T04:01:36.718Z,98532.16
2022-08-20T04:04:30.884Z,98529.41
2022-08-20T04:07:33.895Z,98538.13
2022-08-20T04:10:37.390Z,98528.66
2022-08-20T04:13:42.657Z,98531.38
2022-08-20T04:16:47.591Z,98532.19
2022-08-20T04:19:51.949Z,98525.84
2022-08-20T04:22:59.257Z,98536.97
2022-08-20T04:26:02.399Z,98540.56
2022-08-20T04:29:05.297Z,98545.69
2022-08-20T04:32:09.653Z,98550.03
2022-08-20T04:35:14.582Z,98542.50
2022-08-20T04:38:19.484Z,98555.59
2022-08-20T04:41:24.189Z,98557.56
2022-08-20T04:44:27.560Z,98557.88
2022-08-20T04:47:34.675Z,98561.75
2022-08-20T04:50:39.462Z,98576.41
2022-08-20T04:53:42.690Z,98572.94
2022-08-20T04:56:45.502Z,98571.97
2022-08-20T04:59:48.119Z,98565.31
2022-08-20T05:02:52.114Z,98567.00
2022-08-20T05:05:54.992Z,98574.25
2022-08-20T05:08:59.252Z,98571.97
2022-08-20T05:12:01.826Z,98574.03
2022-08-20T05:15:05.325Z,98582.00
2022-08-20T05:18:10.222Z,98579.56
2022-08-20T05:21:13.005Z,98581.06
2022-08-20T05:24:18.360Z,98577.78
2022-08-20T05:27:25.019Z,98592.38
2022-08-20T05:30:33.339Z,98598.38
2022-08-20T05:33:39.517Z,98590.97
2022-08-20T05:36:44.205Z,98593.38
2022-08-20T05:39:46.843Z,98598.22
2022-08-20T05:42:49.693Z,98593.94
2022-08-20T05:45:56.566Z,98607.47
2022-08-20T05:49:01.807Z,98603.19
2022-08-20T05:52:05.369Z,98612.75
2022-08-20T05:55:09.965Z,98608.47
2022-08-20T05:58:18.544Z,98614.13
2022-08-20T06:01:21.341Z,98611.06
2022-08-20T06:04:24.859Z,98603.31
2022-08-20T06:07:27.823Z,98609.72
2022-08-20T06:10:30.378Z,98598.69
2022-08-20T06:13:32.979Z,98602.25
2022-08-20T06:16:37.407Z,98595.44
2022-08-20T06:19:44.198Z,98606.16
2022-08-20T06:22:47.354Z,98610.50
2022-08-20T06:25:50.835Z,98612.91
2022-08-20T06:28:54.263Z,98613.66
2022-08-20T06:31:56.991Z,98609.72
2022-08-20T06:35:02.440Z,98611.31
2022-08-20T06:38:06.879Z,98608.19
2022-08-20T06:41:09.327Z,98610.91
2022-08-20T06:44:12.196Z,98615.66
2022-08-20T06:47:15.109Z,98613.66
2022-08-20T06:50:22.943Z,98614.47
2022-08-20T06:53:25.663Z,98623.19
2022-08-20T06:56:28.312Z,98622.41
2022-08-20T06:59:31.180Z,98615.22
2022-08-20T07:02:34.096Z,98615.06
2022-08-20T07:05:38.556Z,98622.19
2022-08-20T07:08:41.641Z,98615.44
2022-08-20T07:11:44.155Z,98614.38
2022-08-20T07:14:46.805Z,98622.00
2022-08-20T07:17:51.697Z,98624.47
2022-08-20T07:20:56.877Z,98624.47
2022-08-20T07:23:59.505Z,98630.38
2022-08-20T07:27:02.201Z,98622.75
2022-08-20T07:30:25.542Z,98621.00
2022-08-20T07:33:28.745Z,98631.06
2022-08-20T07:36:33.844Z,98646.81
2022-08-20T07:39:36.678Z,98652.91
2022-08-20T07:42:40.698Z,98650.09
2022-08-20T07:45:45.209Z,98654.94
2022-08-20T07:48:52.836Z,98666.53
2022-08-20T07:51:56.754Z,98656.78
2022-08-20T07:54:59.450Z,98656.16
2022-08-20T07:58:10.138Z,98655.34
2022-08-20T08:01:12.939Z,98655.63
2022-08-20T08:04:16.008Z,98653.16
2022-08-20T08:07:20.240Z,98653.75
2022-08-20T08:10:24.352Z,98651.56
2022-08-20T08:13:28.122Z,98655.97
2022-08-20T08:16:32.582Z,98654.34
2022-08-20T08:19:38.874Z,98653.47
2022-08-20T08:22:44.010Z,98644.28
2022-08-20T08:25:46.848Z,98640.50
2022-08-20T08:28:49.525Z,98639.97
2022-08-20T08:31:55.667Z,98640.72
2022-08-20T08:34:58.746Z,98635.38
2022-08-20T08:38:02.848Z,98627.91
2022-08-20T08:41:12.485Z,98634.13
2022-08-20T08:44:21.820Z,98632.75
2022-08-20T08:47:29.251Z,98632.44
2022-08-20T08:50:54.140Z,98629.19
2022-08-20T08:54:02.054Z,98627.03
2022-08-20T08:57:08.569Z,98638.75
2022-08-20T09:00:15.500Z,98642.00
2022-08-20T09:03:24.491Z,98637.63
2022-08-20T09:06:28.213Z,98639.22
2022-08-20T09:09:34.623Z,98632.00
2022-08-20T09:12:37.333Z,98624.94
2022-08-20T09:15:39.911Z,98626.75
2022-08-20T09:18:43.102Z,98623.16
2022-08-20T09:21:45.806Z,98627.44
2022-08-20T09:24:51.020Z,98638.84
2022-08-20T09:27:53.824Z,98626.34
2022-08-20T09:30:57.393Z,98637.44
2022-08-20T09:34:01.066Z,98627.81
2022-08-20T09:37:03.753Z,98629.91
2022-08-20T09:40:09.887Z,98622.50
2022-08-20T09:43:12.780Z,98630.41
2022-08-20T09:46:15.195Z,98618.16
2022-08-20T09:49:17.916Z,98619.84
2022-08-20T09:52:24.706Z,98614.75
2022-08-20T09:55:33.896Z,98614.75
2022-08-20T09:58:39.983Z,98603.94
2022-08-20T10:01:42.902Z,98620.56
2022-08-20T10:04:45.829Z,98611.66
2022-08-20T10:07:48.661Z,98631.63
2022-08-20T10:10:52.871Z,98639.22
2022-08-20T10:13:55.522Z,98635.66
2022-08-20T10:16:59.833Z,98639.84
2022-08-20T10:20:03.027Z,98633.19
2022-08-20T10:23:05.596Z,98639.34
2022-08-20T10:26:09.668Z,98635.53
2022-08-20T10:29:12.149Z,98635.72
2022-08-20T10:32:16.141Z,98635.38
2022-08-20T10:35:18.789Z,98630.91
2022-08-20T10:38:21.745Z,98624.38
2022-08-20T10:41:25.535Z,98640.78
2022-08-20T10:44:28.204Z,98634.88
2022-08-20T10:47:31.512Z,98624.31
2022-08-20T10:50:34.205Z,98623.63
2022-08-20T10:53:36.964Z,98626.06
2022-08-20T10:56:41.108Z,98620.72
2022-08-20T10:59:44.138Z,98622.03
2022-08-20T11:02:46.802Z,98620.13
2022-08-20T11:05:49.359Z,98621.88
2022-08-20T11:08:51.970Z,98632.22
2022-08-20T11:11:56.802Z,98642.44
2022-08-20T11:14:59.370Z,98641.13
2022-08-20T11:18:01.868Z,98639.94
2022-08-20T11:21:04.432Z,98635.28
2022-08-20T11:24:07.053Z,98648.91
2022-08-20T11:27:10.997Z,98639.94
2022-08-20T11:30:14.977Z,98638.13
2022-08-20T11:33:17.530Z,98636.25
2022-08-20T11:36:26.423Z,98635.22
2022-08-20T11:39:28.916Z,98635.66
2022-08-20T11:42:32.726Z,98634.19
2022-08-20T11:45:37.613Z,98639.28
2022-08-20T11:48:40.430Z,98647.88
2022-08-20T11:51:49.415Z,98654.63
2022-08-20T11:54:55.087Z,98653.59
2022-08-20T11:57:59.957Z,98651.94
2022-08-20T12:01:03.221Z,98650.81
2022-08-20T12:04:06.200Z,98653.78
2022-08-20T12:07:09.243Z,98655.25
2022-08-20T12:10:11.983Z,98649.25
2022-08-20T12:13:15.980Z,98651.00
2022-08-20T12:16:18.548Z,98655.31
2022-08-20T12:19:21.109Z,98657.22
2022-08-20T12:22:25.333Z,98647.53
2022-08-20T12:25:28.237Z,98644.34
2022-08-20T12:28:32.219Z,98651.91
2022-08-20T12:31:34.801Z,98642.34
2022-08-20T12:34:37.550Z,98644.06
2022-08-20T12:37:40.233Z,98640.69
2022-08-20T12:40:42.800Z,98637.16
2022-08-20T12:43:46.752Z,98637.75
2022-08-20T12:46:49.353Z,98622.63
2022-08-20T12:49:52.595Z,98619.66
2022-08-20T12:52:55.176Z,98625.69
2022-08-20T12:55:57.813Z,98617.25
2022-08-20T12:59:01.661Z,98619.00
2022-08-20T13:02:14.227Z,98622.38
2022-08-20T13:05:18.433Z,98630.63
2022-08-20T13:08:20.976Z,98627.59
2022-08-20T13:11:23.435Z,98630.59
2022-08-20T13:14:27.392Z,98640.84
2022-08-20T13:17:39.681Z,98648.78
2022-08-20T13:20:42.503Z,98643.13
2022-08-20T13:23:45.074Z,98642.75
2022-08-20T13:26:47.509Z,98654.25
2022-08-20T13:29:56.436Z,98656.38
2022-08-20T13:33:01.110Z,98650.63
2022-08-20T13:36:03.728Z,98653.00
2022-08-20T13:39:06.844Z,98654.59
2022-08-20T13:42:09.406Z,98652.81
2022-08-20T13:45:13.185Z,98664.25
2022-08-20T13:48:15.661Z,98655.88
2022-08-20T13:51:19.137Z,98660.53
2022-08-20T13:54:26.093Z,98655.75
2022-08-20T13:57:32.762Z,98652.06
2022-08-20T14:00:36.819Z,98637.78
2022-08-20T14:03:39.528Z,98625.47
2022-08-20T14:06:45.304Z,98619.63
2022-08-20T14:09:48.367Z,98610.31
2022-08-20T14:12:50.954Z,98602.97
2022-08-20T14:15:55.223Z,98601.72
2022-08-20T14:18:57.793Z,98606.81
2022-08-20T14:22:00.351Z,98599.63
2022-08-20T14:25:03.844Z,98596.25
2022-08-20T14:28:12.568Z,98591.19
2022-08-20T14:31:16.384Z,98585.72
2022-08-20T14:34:19.053Z,98581.53
2022-08-20T14:37:22.999Z,98590.84
2022-08-20T14:40:26.302Z,98576.06
2022-08-20T14:43:28.965Z,98569.84
2022-08-20T14:46:32.785Z,98559.47
2022-08-20T14:49:35.317Z,98559.25
2022-08-20T14:52:38.020Z,98574.22
2022-08-20T14:55:40.551Z,98572.06
2022-08-20T14:58:43.069Z,98560.13
2022-08-20T15:01:47.075Z,98563.09
2022-08-20T15:04:54.193Z,98554.66
2022-08-20T15:07:58.273Z,98563.94
2022-08-20T15:11:01.941Z,98551.53
2022-08-20T15:14:04.415Z,98547.56
2022-08-20T15:17:08.211Z,98544.84
2022-08-20T15:20:20.766Z,98532.34
2022-08-20T15:23:23.963Z,98536.88
2022-08-20T15:26:26.591Z,98532.75
2022-08-20T15:29:29.262Z,98531.69
2022-08-20T15:32:33.114Z,98531.50
2022-08-20T15:35:35.545Z,98535.31
2022-08-20T15:38:38.055Z,98538.28
2022-08-20T15:41:40.673Z,98533.88
2022-08-20T15:45:27.566Z,98517.13
2022-08-20T15:48:34.098Z,98527.41
2022-08-20T15:51:41.925Z,98536.72
2022-08-20T15:54:45.255Z,98545.31
2022-08-20T15:57:54.945Z,98543.03
2022-08-20T16:01:24.789Z,98540.97
2022-08-20T16:05:03.187Z,98539.41
2022-08-20T16:08:17.982Z,98547.31
2022-08-20T16:11:25.162Z,98539.25
2022-08-20T16:14:30.105Z,98534.19
2022-08-20T16:17:41.562Z,98538.06
2022-08-20T16:20:48.301Z,98542.06
2022-08-20T16:23:51.000Z,98537.31
2022-08-20T16:27:10.409Z,98560.09
2022-08-20T16:30:20.886Z,98561.00
2022-08-20T16:33:28.818Z,98563.56
2022-08-20T16:36:37.449Z,98562.50
2022-08-20T16:39:44.912Z,98550.34
2022-08-20T16:42:52.209Z,98549.03
2022-08-20T16:45:56.925Z,98545.16
2022-08-20T16:49:05.626Z,98546.38
2022-08-20T16:52:08.703Z,98555.50
2022-08-20T16:55:11.930Z,98557.44
2022-08-20T16:58:14.723Z,98550.91
2022-08-20T17:01:17.415Z,98547.91
2022-08-20T17:04:23.396Z,98547.53
2022-08-20T17:07:29.830Z,98541.44
2022-08-20T17:10:39.700Z,98536.19
2022-08-20T17:13:44.686Z,98540.50
2022-08-20T17:16:49.714Z,98541.72
2022-08-20T17:19:57.328Z,98543.56
2022-08-20T17:23:11.228Z,98538.34
2022-08-20T17:26:26.307Z,98551.44
2022-08-20T17:29:31.495Z,98549.47
2022-08-20T17:32:34.389Z,98559.41
2022-08-20T17:35:42.977Z,98552.44
2022-08-20T17:38:49.270Z,98550.28
2022-08-20T17:41:56.034Z,98552.50
2022-08-20T17:45:04.610Z,98547.69
2022-08-20T17:48:13.273Z,98553.03
2022-08-20T17:51:19.699Z,98553.94
2022-08-20T17:54:24.364Z,98550.50
2022-08-20T17:57:31.698Z,98566.25
2022-08-20T18:00:34.770Z,98567.19
2022-08-20T18:03:37.696Z,98562.59
2022-08-20T18:06:45.804Z,98567.91
2022-08-20T18:09:53.860Z,98570.50
2022-08-20T18:13:01.135Z,98563.34
2022-08-20T18:16:05.091Z,98569.88
2022-08-20T18:19:15.294Z,98570.41
2022-08-20T18:22:21.780Z,98570.81
2022-08-20T18:25:33.622Z,98571.31
2022-08-20T18:36:50.775Z,98587.22
2022-08-20T18:40:46.136Z,98581.72
2022-08-20T18:48:00.977Z,98584.22
2022-08-20T18:59:38.991Z,98592.69
2022-08-20T19:02:56.017Z,98591.13
2022-08-20T19:06:08.800Z,98591.09
2022-08-20T19:09:15.741Z,98601.44
2022-08-20T19:12:33.829Z,98601.47
2022-08-20T19:15:41.190Z,98606.66
2022-08-20T19:18:47.865Z,98600.25
2022-08-20T19:21:50.759Z,98612.97
2022-08-20T19:24:56.760Z,98605.84
2022-08-20T19:28:01.608Z,98602.69
2022-08-20T19:31:17.122Z,98617.75
2022-08-20T19:34:23.989Z,98609.03
2022-08-20T19:37:39.662Z,98613.00
2022-08-20T19:40:47.152Z,98610.63
2022-08-20T19:43:55.263Z,98605.44
2022-08-20T19:47:00.220Z,98606.19
2022-08-20T19:50:16.908Z,98608.94
2022-08-20T19:53:30.373Z,98612.88
2022-08-20T19:56:40.748Z,98613.66
2022-08-20T19:59:52.842Z,98617.66
2022-08-20T20:02:57.755Z,98613.66
2022-08-20T20:06:02.400Z,98615.63
2022-08-20T20:09:08.144Z,98606.94
2022-08-20T20:12:19.265Z,98616.81
2022-08-20T20:15:26.040Z,98612.84
2022-08-20T20:18:32.529Z,98606.94
2022-08-20T20:21:39.133Z,98618.81
2022-08-20T20:24:44.965Z,98622.34
2022-08-20T20:27:49.853Z,98618.78
2022-08-20T20:30:52.749Z,98616.00
2022-08-20T20:33:59.246Z,98619.16
2022-08-20T20:37:04.954Z,98623.50
2022-08-20T20:40:19.082Z,98618.31
2022-08-20T20:43:28.481Z,98616.34
2022-08-20T20:46:33.074Z,98615.91
2022-08-20T20:49:49.297Z,98617.38
2022-08-20T20:52:55.495Z,98615.47
2022-08-20T20:56:00.206Z,98614.66
2022-08-20T20:59:06.788Z,98613.47
2022-08-20T21:02:10.211Z,98601.94
2022-08-20T21:05:16.643Z,98611.88
2022-08-20T21:08:19.697Z,98619.75
2022-08-20T21:11:22.669Z,98614.56
2022-08-20T21:14:25.329Z,98610.94
2022-08-20T21:17:28.060Z,98620.31
2022-08-20T21:20:32.368Z,98616.41
2022-08-20T21:23:40.270Z,98617.09
2022-08-20T21:26:45.030Z,98610.69
2022-08-20T21:29:47.731Z,98622.00
2022-08-20T21:32:50.782Z,98616.78
2022-08-20T21:35:54.905Z,98611.94
2022-08-20T21:38:57.813Z,98617.47
2022-08-20T21:42:02.979Z,98626.81
2022-08-20T21:45:08.211Z,98626.19
2022-08-20T21:48:11.476Z,98631.41
2022-08-20T21:51:15.405Z,98643.63
2022-08-20T21:54:18.501Z,98633.50
2022-08-20T21:57:22.640Z,98644.16
2022-08-20T22:00:52.357Z,98640.13
2022-08-20T22:03:55.363Z,98638.06
2022-08-20T22:06:59.522Z,98645.41
2022-08-20T22:10:04.284Z,98639.84
2022-08-20T22:13:07.348Z,98639.69
2022-08-20T22:16:10.881Z,98637.75
2022-08-20T22:19:16.234Z,98648.09
2022-08-20T22:22:21.709Z,98641.19
2022-08-20T22:25:24.410Z,98642.41
2022-08-20T22:28:27.282Z,98652.78
2022-08-20T22:31:31.172Z,98652.38
2022-08-20T22:34:35.624Z,98649.50
2022-08-20T22:37:39.757Z,98650.56
2022-08-20T22:40:42.687Z,98654.38
2022-08-20T22:43:55.699Z,98651.81
2022-08-20T22:47:02.827Z,98656.13
2022-08-20T22:50:06.597Z,98659.38
2022-08-20T22:53:11.605Z,98652.72
2022-08-20T22:56:21.902Z,98659.59
2022-08-20T22:59:25.840Z,98653.59
2022-08-20T23:02:28.609Z,98659.75
2022-08-20T23:05:32.953Z,98657.59
2022-08-20T23:08:38.086Z,98658.38
2022-08-20T23:11:40.823Z,98658.31
2022-08-20T23:14:43.491Z,98660.06
2022-08-20T23:17:46.396Z,98656.78
2022-08-20T23:20:53.394Z,98663.16
2022-08-20T23:23:57.416Z,98648.50
2022-08-20T23:27:00.313Z,98655.81
2022-08-20T23:30:02.940Z,98655.41
2022-08-20T23:33:05.763Z,98652.56
2022-08-20T23:36:10.353Z,98659.88
2022-08-20T23:39:14.406Z,98656.25
2022-08-20T23:42:17.700Z,98652.69
2022-08-20T23:45:20.448Z,98651.97
2022-08-20T23:48:23.352Z,98648.25
2022-08-20T23:51:26.176Z,98652.75
2022-08-20T23:54:33.805Z,98652.66
2022-08-20T23:57:37.647Z,98648.59
